createdAt,value
2019-05-20T00:00:56.840Z,89.93
2019-05-20T00:03:04.303Z,89.83
2019-05-20T00:05:12.039Z,89.76
2019-05-20T00:07:19.487Z,89.81
2019-05-20T00:09:26.996Z,90.12
2019-05-20T00:11:34.477Z,89.98
2019-05-20T00:13:41.984Z,89.88
2019-05-20T00:15:49.383Z,90.18
2019-05-20T00:17:57.089Z,90.07
2019-05-20T00:20:04.827Z,89.78
2019-05-20T00:22:12.345Z,89.99
2019-05-20T00:24:19.729Z,90.29
2019-05-20T00:26:27.185Z,89.99
2019-05-20T00:28:34.616Z,90.32
2019-05-20T00:30:42.064Z,89.88
2019-05-20T00:32:49.475Z,90.09
2019-05-20T00:34:56.950Z,90.34
2019-05-20T00:37:04.419Z,90.25
2019-05-20T00:39:30.060Z,89.79
2019-05-20T00:41:37.587Z,89.33
2019-05-20T00:43:45.103Z,89.97
2019-05-20T00:45:52.513Z,90.23
2019-05-20T00:47:59.943Z,90.73
2019-05-20T00:50:08.207Z,90.05
2019-05-20T00:52:15.641Z,90.14
2019-05-20T00:54:23.274Z,89.54
2019-05-20T00:56:30.934Z,90.20
2019-05-20T00:58:38.352Z,89.80
2019-05-20T01:00:45.945Z,90.27
2019-05-20T01:02:56.993Z,90.54
2019-05-20T01:05:04.217Z,90.42
2019-05-20T01:07:11.620Z,89.53
2019-05-20T01:09:19.164Z,90.14
2019-05-20T01:11:27.418Z,89.96
2019-05-20T01:13:35.015Z,90.20
2019-05-20T01:15:42.523Z,90.48
2019-05-20T01:17:50.039Z,90.58
2019-05-20T01:19:57.529Z,90.29
2019-05-20T01:22:05.160Z,90.20
2019-05-20T01:24:12.621Z,90.50
2019-05-20T01:26:20.028Z,90.67
2019-05-20T01:28:27.454Z,90.59
2019-05-20T01:30:34.882Z,90.02
2019-05-20T01:32:42.454Z,90.22
2019-05-20T01:34:49.862Z,90.29
2019-05-20T01:36:57.412Z,90.06
2019-05-20T01:39:05.752Z,90.27
2019-05-20T01:41:13.184Z,90.90
2019-05-20T01:43:20.587Z,90.40
2019-05-20T01:45:27.959Z,90.32
2019-05-20T01:47:35.361Z,90.09
2019-05-20T01:49:42.946Z,90.91
2019-05-20T01:51:50.443Z,90.98
2019-05-20T01:53:57.928Z,90.57
2019-05-20T01:56:05.390Z,90.83
2019-05-20T01:58:12.904Z,90.78
2019-05-20T02:00:22.245Z,91.05
2019-05-20T02:02:29.626Z,90.98
2019-05-20T02:04:37.272Z,91.09
2019-05-20T02:06:44.737Z,90.67
2019-05-20T02:08:52.144Z,91.36
2019-05-20T02:10:59.531Z,91.55
2019-05-20T02:13:07.130Z,91.98
2019-05-20T02:15:25.650Z,90.89
2019-05-20T02:17:33.056Z,91.10
2019-05-20T02:19:40.493Z,91.33
2019-05-20T02:21:47.901Z,91.35
2019-05-20T02:23:55.298Z,91.55
2019-05-20T02:26:02.708Z,91.97
2019-05-20T02:28:10.187Z,91.93
2019-05-20T02:30:18.272Z,91.61
2019-05-20T02:32:25.685Z,90.88
2019-05-20T02:34:33.068Z,90.85
2019-05-20T02:36:40.618Z,91.43
2019-05-20T02:38:48.058Z,91.90
2019-05-20T02:40:55.456Z,92.23
2019-05-20T02:43:03.318Z,91.60
2019-05-20T02:45:11.509Z,90.97
2019-05-20T02:47:18.977Z,91.17
2019-05-20T02:49:26.410Z,90.82
2019-05-20T02:51:33.855Z,90.03
2019-05-20T02:53:41.407Z,90.00
2019-05-20T02:55:48.970Z,89.50
2019-05-20T02:57:56.412Z,89.09
2019-05-20T03:00:03.961Z,90.28
2019-05-20T03:02:11.405Z,91.06
2019-05-20T03:04:18.892Z,90.53
2019-05-20T03:06:26.277Z,90.21
2019-05-20T03:08:33.747Z,90.90
2019-05-20T03:10:41.256Z,90.92
2019-05-20T03:12:48.679Z,90.84
2019-05-20T03:14:56.184Z,91.32
2019-05-20T03:17:03.714Z,90.33
2019-05-20T03:19:11.240Z,91.30
2019-05-20T03:21:18.916Z,92.03
2019-05-20T03:23:26.342Z,91.84
2019-05-20T03:25:33.861Z,91.60
2019-05-20T03:27:41.440Z,91.33
2019-05-20T03:29:49.037Z,91.18
2019-05-20T03:31:56.530Z,90.23
2019-05-20T03:34:03.959Z,90.11
2019-05-20T03:36:11.796Z,91.35
2019-05-20T03:38:19.268Z,90.13
2019-05-20T03:40:26.823Z,90.93
2019-05-20T03:42:34.275Z,91.67
2019-05-20T03:44:41.771Z,91.31
2019-05-20T03:46:49.334Z,91.15
2019-05-20T03:48:56.823Z,91.15
2019-05-20T03:51:04.380Z,91.60
2019-05-20T03:53:11.836Z,90.15
2019-05-20T03:55:19.245Z,89.49
2019-05-20T03:57:26.648Z,90.17
2019-05-20T03:59:34.086Z,90.82
2019-05-20T04:01:41.549Z,90.94
2019-05-20T04:03:48.982Z,89.56
2019-05-20T04:05:56.459Z,89.72
2019-05-20T04:08:03.821Z,90.33
2019-05-20T04:10:11.529Z,89.82
2019-05-20T04:12:19.113Z,90.08
2019-05-20T04:14:26.810Z,89.95
2019-05-20T04:16:34.413Z,89.53
2019-05-20T04:18:41.969Z,89.37
2019-05-20T04:20:49.449Z,89.19
2019-05-20T04:22:56.966Z,89.38
2019-05-20T04:25:04.984Z,89.24
2019-05-20T04:27:12.593Z,88.77
2019-05-20T04:29:20.235Z,88.37
2019-05-20T04:31:27.761Z,88.91
2019-05-20T04:33:35.413Z,88.55
2019-05-20T04:35:43.100Z,87.67
2019-05-20T04:37:51.142Z,88.07
2019-05-20T04:39:58.971Z,88.34
2019-05-20T04:42:07.435Z,88.21
2019-05-20T04:44:14.995Z,87.71
2019-05-20T04:46:22.596Z,87.69
2019-05-20T04:48:30.049Z,87.13
2019-05-20T04:50:37.582Z,86.91
2019-05-20T04:52:45.051Z,87.01
2019-05-20T04:54:52.514Z,87.12
2019-05-20T04:57:00.005Z,87.13
2019-05-20T04:59:07.667Z,86.54
2019-05-20T05:01:15.226Z,87.16
2019-05-20T05:03:22.981Z,87.24
2019-05-20T05:05:37.815Z,86.64
2019-05-20T05:07:39.921Z,86.55
2019-05-20T05:09:47.502Z,86.46
2019-05-20T05:11:55.467Z,86.49
2019-05-20T05:14:03.199Z,86.07
2019-05-20T05:16:11.202Z,86.29
2019-05-20T05:18:19.040Z,85.82
2019-05-20T05:20:26.738Z,85.51
2019-05-20T05:22:34.325Z,85.90
2019-05-20T05:24:41.891Z,85.50
2019-05-20T05:26:49.483Z,86.38
2019-05-20T05:28:56.970Z,84.60
2019-05-20T05:31:04.527Z,84.92
2019-05-20T05:33:12.071Z,85.15
2019-05-20T05:35:20.675Z,84.41
2019-05-20T05:37:28.000Z,83.76
2019-05-20T05:39:35.463Z,83.52
2019-05-20T05:41:43.015Z,84.12
2019-05-20T05:43:50.505Z,83.75
2019-05-20T05:45:58.022Z,83.72
2019-05-20T05:48:05.764Z,83.22
2019-05-20T05:50:13.722Z,82.98
2019-05-20T05:52:22.995Z,82.09
2019-05-20T05:54:30.745Z,82.41
2019-05-20T05:56:38.578Z,82.29
2019-05-20T05:58:46.025Z,82.10
2019-05-20T06:00:53.637Z,81.37
2019-05-20T06:03:01.270Z,81.23
2019-05-20T06:05:09.231Z,81.26
2019-05-20T06:07:16.865Z,79.87
2019-05-20T06:09:24.345Z,80.26
2019-05-20T06:13:45.074Z,80.82
2019-05-20T06:15:54.578Z,80.13
2019-05-20T06:18:01.785Z,79.97
2019-05-20T06:20:11.861Z,80.07
2019-05-20T06:22:19.720Z,79.63
2019-05-20T06:24:27.236Z,80.22
2019-05-20T06:26:35.071Z,80.18
2019-05-20T06:28:42.550Z,80.96
2019-05-20T06:30:51.056Z,80.45
2019-05-20T06:32:58.509Z,80.69
2019-05-20T06:35:07.013Z,79.82
2019-05-20T06:37:16.564Z,80.05
2019-05-20T06:39:23.958Z,80.37
2019-05-20T06:41:31.371Z,79.58
2019-05-20T06:43:39.169Z,78.70
2019-05-20T06:45:46.838Z,79.22
2019-05-20T06:47:54.292Z,77.64
2019-05-20T06:50:01.796Z,78.11
2019-05-20T06:52:09.358Z,78.06
2019-05-20T06:54:16.839Z,77.45
2019-05-20T06:56:24.310Z,77.69
2019-05-20T06:58:31.781Z,77.19
2019-05-20T07:00:41.121Z,77.17
2019-05-20T07:02:51.603Z,76.20
2019-05-20T07:04:57.769Z,78.31
2019-05-20T07:07:19.944Z,77.87
2019-05-20T07:09:14.424Z,77.85
2019-05-20T07:11:21.948Z,78.27
2019-05-20T07:13:29.500Z,76.80
2019-05-20T07:15:37.107Z,77.74
2019-05-20T07:17:44.925Z,78.20
2019-05-20T07:20:00.301Z,76.66
2019-05-20T07:22:12.493Z,76.10
2019-05-20T07:24:20.026Z,76.16
2019-05-20T07:26:27.555Z,77.64
2019-05-20T07:28:35.042Z,76.59
2019-05-20T07:30:42.658Z,76.52
2019-05-20T07:32:50.284Z,76.38
2019-05-20T07:34:57.802Z,77.43
2019-05-20T07:37:05.256Z,76.26
2019-05-20T07:39:12.948Z,76.18
2019-05-20T07:41:20.816Z,75.42
2019-05-20T07:43:28.621Z,76.01
2019-05-20T07:45:39.147Z,75.83
2019-05-20T07:47:47.146Z,74.60
2019-05-20T07:49:55.579Z,75.38
2019-05-20T07:52:03.735Z,74.06
2019-05-20T07:54:12.320Z,73.69
2019-05-20T07:56:24.932Z,72.09
2019-05-20T07:58:36.509Z,72.81
2019-05-20T08:00:45.221Z,73.62
2019-05-20T08:02:52.844Z,73.60
2019-05-20T08:05:00.647Z,74.09
2019-05-20T08:07:26.637Z,73.79
2019-05-20T08:09:17.718Z,72.36
2019-05-20T08:11:25.186Z,71.81
2019-05-20T08:13:32.697Z,72.31
2019-05-20T08:15:40.355Z,70.23
2019-05-20T08:17:47.941Z,72.69
2019-05-20T08:19:55.437Z,70.36
2019-05-20T08:22:03.150Z,71.42
2019-05-20T08:24:10.654Z,72.03
2019-05-20T08:26:18.298Z,71.23
2019-05-20T08:28:25.890Z,71.37
2019-05-20T08:30:36.748Z,72.60
2019-05-20T08:32:44.259Z,71.46
2019-05-20T08:34:51.823Z,70.64
2019-05-20T08:36:59.232Z,70.71
2019-05-20T08:39:08.845Z,71.66
2019-05-20T08:41:16.331Z,68.79
2019-05-20T08:43:23.792Z,70.02
2019-05-20T08:45:31.419Z,68.67
2019-05-20T08:47:38.863Z,68.02
2019-05-20T08:49:46.730Z,66.79
2019-05-20T08:51:54.637Z,69.45
2019-05-20T08:54:02.311Z,69.50
2019-05-20T08:56:10.064Z,68.53
2019-05-20T08:58:18.011Z,68.96
2019-05-20T09:00:26.244Z,68.10
2019-05-20T09:02:34.218Z,68.55
2019-05-20T09:04:42.188Z,66.77
2019-05-20T09:06:50.616Z,69.00
2019-05-20T09:08:58.681Z,65.97
2019-05-20T09:11:07.517Z,66.70
2019-05-20T09:13:15.309Z,66.60
2019-05-20T09:15:23.648Z,66.32
2019-05-20T09:17:31.305Z,64.64
2019-05-20T09:19:38.741Z,66.97
2019-05-20T09:21:46.360Z,66.98
2019-05-20T09:23:53.788Z,65.35
2019-05-20T09:26:01.250Z,65.00
2019-05-20T09:28:09.055Z,65.87
2019-05-20T09:30:19.990Z,65.95
2019-05-20T09:32:28.054Z,66.73
2019-05-20T09:34:35.681Z,64.62
2019-05-20T09:36:43.403Z,63.91
2019-05-20T09:38:50.986Z,64.88
2019-05-20T09:40:58.410Z,65.60
2019-05-20T09:43:06.057Z,60.74
2019-05-20T09:45:14.041Z,62.01
2019-05-20T09:47:21.650Z,62.56
2019-05-20T09:49:29.394Z,62.56
2019-05-20T09:51:37.089Z,61.54
2019-05-20T09:53:44.668Z,63.33
2019-05-20T09:55:52.180Z,61.53
2019-05-20T09:57:59.705Z,63.89
2019-05-20T10:00:08.976Z,64.59
2019-05-20T10:02:16.456Z,62.56
2019-05-20T10:04:24.014Z,63.08
2019-05-20T10:06:31.669Z,61.49
2019-05-20T10:08:44.452Z,61.68
2019-05-20T10:10:48.318Z,63.12
2019-05-20T10:12:55.850Z,63.29
2019-05-20T10:15:03.277Z,63.07
2019-05-20T10:17:10.772Z,64.13
2019-05-20T10:19:18.264Z,63.51
2019-05-20T10:21:25.641Z,63.31
2019-05-20T10:23:33.157Z,64.18
2019-05-20T10:25:40.781Z,64.34
2019-05-20T10:27:48.417Z,63.83
2019-05-20T10:29:55.946Z,63.65
2019-05-20T10:32:03.442Z,63.88
2019-05-20T10:34:10.884Z,65.84
2019-05-20T10:36:18.407Z,64.73
2019-05-20T10:38:25.897Z,61.13
2019-05-20T10:40:33.353Z,61.83
2019-05-20T10:42:40.872Z,59.43
2019-05-20T10:44:48.804Z,59.83
2019-05-20T10:46:56.367Z,60.00
2019-05-20T10:49:03.976Z,62.02
2019-05-20T10:51:13.492Z,63.80
2019-05-20T10:53:21.980Z,63.02
2019-05-20T10:55:29.577Z,61.17
2019-05-20T10:57:38.137Z,60.79
2019-05-20T10:59:45.595Z,62.47
2019-05-20T11:01:53.311Z,64.21
2019-05-20T11:04:01.131Z,62.62
2019-05-20T11:06:08.843Z,64.55
2019-05-20T11:08:16.865Z,64.98
2019-05-20T11:10:25.411Z,64.10
2019-05-20T11:12:32.927Z,61.63
2019-05-20T11:14:40.416Z,62.15
2019-05-20T11:16:47.829Z,61.82
2019-05-20T11:18:55.197Z,58.81
2019-05-20T11:21:02.652Z,57.98
2019-05-20T11:23:10.008Z,58.56
2019-05-20T11:25:18.035Z,58.74
2019-05-20T11:27:25.514Z,59.34
2019-05-20T11:29:32.907Z,60.13
2019-05-20T11:31:40.619Z,59.77
2019-05-20T11:33:48.044Z,59.58
2019-05-20T11:35:55.532Z,61.07
2019-05-20T11:38:02.945Z,61.09
2019-05-20T11:40:12.818Z,61.35
2019-05-20T11:42:20.973Z,61.74
2019-05-20T11:44:28.383Z,62.78
2019-05-20T11:46:35.787Z,61.87
2019-05-20T11:48:43.421Z,62.94
2019-05-20T11:50:50.989Z,63.42
2019-05-20T11:52:58.495Z,64.21
2019-05-20T11:55:06.529Z,64.52
2019-05-20T11:57:13.970Z,63.74
2019-05-20T11:59:21.507Z,64.24
2019-05-20T12:01:29.323Z,64.44
2019-05-20T12:03:36.843Z,64.95
2019-05-20T12:05:45.929Z,65.22
2019-05-20T12:07:53.380Z,66.13
2019-05-20T12:10:00.838Z,66.44
2019-05-20T12:12:08.252Z,67.17
2019-05-20T12:14:15.859Z,66.82
2019-05-20T12:16:23.354Z,67.62
2019-05-20T12:18:30.800Z,68.38
2019-05-20T12:20:38.425Z,68.74
2019-05-20T12:22:46.059Z,67.40
2019-05-20T12:24:53.495Z,67.34
2019-05-20T12:27:00.970Z,67.25
2019-05-20T12:29:08.529Z,67.44
2019-05-20T12:31:16.128Z,67.41
2019-05-20T12:33:23.616Z,66.92
2019-05-20T12:35:31.368Z,67.01
2019-05-20T12:37:39.309Z,67.38
2019-05-20T12:39:46.704Z,67.53
2019-05-20T12:41:54.166Z,67.31
2019-05-20T12:44:12.060Z,69.64
2019-05-20T12:46:10.913Z,69.16
2019-05-20T12:48:18.464Z,68.75
2019-05-20T12:50:26.138Z,67.85
2019-05-20T12:52:33.664Z,68.56
2019-05-20T12:54:41.274Z,69.39
2019-05-20T12:56:49.094Z,69.30
2019-05-20T12:58:56.648Z,70.09
2019-05-20T13:01:04.318Z,69.49
2019-05-20T13:03:12.029Z,70.04
2019-05-20T13:05:21.688Z,71.20
2019-05-20T13:07:29.344Z,70.00
2019-05-20T13:09:36.943Z,70.44
2019-05-20T13:11:44.727Z,70.40
2019-05-20T13:13:52.356Z,70.98
2019-05-20T13:16:00.156Z,71.35
2019-05-20T13:18:07.886Z,71.30
2019-05-20T13:20:15.823Z,72.57
2019-05-20T13:22:23.730Z,72.67
2019-05-20T13:24:31.297Z,72.88
2019-05-20T13:26:38.891Z,72.87
2019-05-20T13:28:46.732Z,73.58
2019-05-20T13:30:54.281Z,72.83
2019-05-20T13:33:01.863Z,72.38
2019-05-20T13:35:10.646Z,70.93
2019-05-20T13:37:18.392Z,69.56
2019-05-20T13:39:26.251Z,69.34
2019-05-20T13:41:33.953Z,70.11
2019-05-20T13:43:41.577Z,69.94
2019-05-20T13:45:49.179Z,72.64
2019-05-20T13:47:56.941Z,70.17
2019-05-20T13:50:04.703Z,70.75
2019-05-20T13:52:12.288Z,68.86
2019-05-20T13:54:19.779Z,70.09
2019-05-20T13:56:27.584Z,69.17
2019-05-20T13:58:35.567Z,69.33
2019-05-20T14:00:43.391Z,66.60
2019-05-20T14:02:51.172Z,68.00
2019-05-20T14:04:58.779Z,67.21
2019-05-20T14:07:06.712Z,65.48
2019-05-20T14:09:14.270Z,54.94
2019-05-20T14:11:33.774Z,55.97
2019-05-20T14:13:31.051Z,58.86
2019-05-20T14:15:38.703Z,55.81
2019-05-20T14:17:46.790Z,53.44
2019-05-20T14:19:54.410Z,50.37
2019-05-20T14:22:02.001Z,52.13
2019-05-20T14:24:09.477Z,52.28
2019-05-20T14:26:17.034Z,52.49
2019-05-20T14:28:24.473Z,53.46
2019-05-20T14:30:32.132Z,60.24
2019-05-20T14:32:39.758Z,62.48
2019-05-20T14:34:48.578Z,63.23
2019-05-20T14:36:56.183Z,64.42
2019-05-20T14:39:04.458Z,65.67
2019-05-20T14:41:20.952Z,65.38
2019-05-20T14:43:21.166Z,65.39
2019-05-20T14:45:28.628Z,65.40
2019-05-20T14:47:36.364Z,65.55
2019-05-20T14:49:43.916Z,65.02
2019-05-20T14:51:51.331Z,64.36
2019-05-20T14:53:59.748Z,64.04
2019-05-20T14:56:07.428Z,65.70
2019-05-20T14:58:14.970Z,65.30
2019-05-20T15:00:22.509Z,66.25
2019-05-20T15:02:31.256Z,66.29
2019-05-20T15:04:39.088Z,67.01
2019-05-20T15:06:46.685Z,67.34
2019-05-20T15:08:54.207Z,67.54
2019-05-20T15:11:01.858Z,66.63
2019-05-20T15:13:09.461Z,67.08
2019-05-20T15:15:18.047Z,67.05
2019-05-20T15:17:25.631Z,66.93
2019-05-20T15:19:33.187Z,66.79
2019-05-20T15:21:40.865Z,64.27
2019-05-20T15:23:48.307Z,64.67
2019-05-20T15:25:56.873Z,64.05
2019-05-20T15:28:04.474Z,66.24
2019-05-20T15:30:12.847Z,63.80
2019-05-20T15:32:20.681Z,65.69
2019-05-20T15:34:28.188Z,65.71
2019-05-20T15:36:35.888Z,65.26
2019-05-20T15:38:43.422Z,67.11
2019-05-20T15:40:51.202Z,67.16
2019-05-20T15:42:58.615Z,66.83
2019-05-20T15:45:07.224Z,65.05
2019-05-20T15:47:18.650Z,65.82
2019-05-20T15:49:25.521Z,65.83
2019-05-20T15:51:34.770Z,65.72
2019-05-20T15:53:42.412Z,66.13
2019-05-20T15:55:50.235Z,65.87
2019-05-20T15:57:57.830Z,66.81
2019-05-20T16:00:06.838Z,66.46
2019-05-20T16:02:15.014Z,65.77
2019-05-20T16:04:24.335Z,65.55
2019-05-20T16:06:31.858Z,64.65
2019-05-20T16:08:39.895Z,65.67
2019-05-20T16:10:47.463Z,66.38
2019-05-20T16:12:55.135Z,66.19
2019-05-20T16:15:03.177Z,65.93
2019-05-20T16:17:11.308Z,67.09
2019-05-20T16:19:18.841Z,66.91
2019-05-20T16:21:26.559Z,66.88
2019-05-20T16:23:34.708Z,66.61
2019-05-20T16:25:42.914Z,67.57
2019-05-20T16:27:50.783Z,67.33
2019-05-20T16:30:06.181Z,66.82
2019-05-20T16:32:08.225Z,67.79
2019-05-20T16:34:15.746Z,67.57
2019-05-20T16:36:23.229Z,68.35
2019-05-20T16:38:30.980Z,69.18
2019-05-20T16:40:38.984Z,69.95
2019-05-20T16:42:46.894Z,69.90
2019-05-20T16:44:55.444Z,70.98
2019-05-20T16:47:03.118Z,71.51
2019-05-20T16:49:11.890Z,71.96
2019-05-20T16:51:22.379Z,72.17
2019-05-20T16:53:31.281Z,73.26
2019-05-20T16:55:39.441Z,74.76
2019-05-20T16:57:47.329Z,75.63
2019-05-20T16:59:56.093Z,78.27
2019-05-20T17:02:04.019Z,78.74
2019-05-20T17:04:12.550Z,78.91
2019-05-20T17:06:21.112Z,80.67
2019-05-20T17:08:29.001Z,81.81
2019-05-20T17:10:36.866Z,82.75
2019-05-20T17:12:44.439Z,84.37
2019-05-20T17:14:52.704Z,86.40
2019-05-20T17:17:00.466Z,86.56
2019-05-20T17:19:08.433Z,87.17
2019-05-20T17:21:16.350Z,87.88
2019-05-20T17:23:24.725Z,87.17
2019-05-20T17:25:33.068Z,87.49
2019-05-20T17:27:41.102Z,88.18
2019-05-20T17:29:48.620Z,88.53
2019-05-20T17:31:56.187Z,88.15
2019-05-20T17:34:05.162Z,89.82
2019-05-20T17:36:13.016Z,89.35
2019-05-20T17:38:21.138Z,90.17
2019-05-20T17:40:28.988Z,89.66
2019-05-20T17:42:37.529Z,89.87
2019-05-20T17:44:46.373Z,90.46
2019-05-20T17:46:55.301Z,90.87
2019-05-20T17:49:04.089Z,91.01
2019-05-20T17:51:13.407Z,90.78
2019-05-20T17:53:21.792Z,91.22
2019-05-20T17:55:30.463Z,91.41
2019-05-20T17:57:39.362Z,91.83
2019-05-20T17:59:47.059Z,91.95
2019-05-20T18:01:54.740Z,91.79
2019-05-20T18:04:02.601Z,90.91
2019-05-20T18:06:10.982Z,92.11
2019-05-20T18:08:18.561Z,91.09
2019-05-20T18:10:26.831Z,91.83
2019-05-20T18:12:35.249Z,91.16
2019-05-20T18:14:45.893Z,91.97
2019-05-20T18:16:54.234Z,90.95
2019-05-20T18:19:04.277Z,91.17
2019-05-20T18:21:12.394Z,90.91
2019-05-20T18:23:20.620Z,91.88
2019-05-20T18:25:28.468Z,91.73
2019-05-20T18:27:36.978Z,92.20
2019-05-20T18:29:44.949Z,91.42
2019-05-20T18:31:53.147Z,91.40
2019-05-20T18:34:01.891Z,90.72
2019-05-20T18:36:10.081Z,90.17
2019-05-20T18:38:18.194Z,92.82
2019-05-20T18:40:27.140Z,91.47
2019-05-20T18:42:36.851Z,92.47
2019-05-20T18:44:44.900Z,90.32
2019-05-20T18:46:53.604Z,90.52
2019-05-20T18:49:01.583Z,92.00
2019-05-20T18:51:11.127Z,92.88
2019-05-20T18:53:19.040Z,91.79
2019-05-20T18:55:26.653Z,92.86
2019-05-20T18:57:34.542Z,92.94
2019-05-20T18:59:43.156Z,93.43
2019-05-20T19:02:04.639Z,93.74
2019-05-20T19:04:01.104Z,93.43
2019-05-20T19:06:08.969Z,93.50
2019-05-20T19:08:16.925Z,93.19
2019-05-20T19:10:24.857Z,92.08
2019-05-20T19:12:32.869Z,92.70
2019-05-20T19:14:40.486Z,93.18
2019-05-20T19:16:48.851Z,92.64
2019-05-20T19:18:56.882Z,91.44
2019-05-20T19:21:04.712Z,92.19
2019-05-20T19:23:12.348Z,92.50
2019-05-20T19:25:20.032Z,92.30
2019-05-20T19:27:27.989Z,92.95
2019-05-20T19:29:35.907Z,93.32
2019-05-20T19:31:43.532Z,92.85
2019-05-20T19:33:51.181Z,92.81
2019-05-20T19:36:02.053Z,92.36
2019-05-20T19:38:09.942Z,93.28
2019-05-20T19:40:17.746Z,92.40
2019-05-20T19:42:26.262Z,92.69
2019-05-20T19:44:34.241Z,92.37
2019-05-20T19:46:41.893Z,92.68
2019-05-20T19:48:49.620Z,93.00
2019-05-20T19:50:57.428Z,92.75
2019-05-20T19:53:05.142Z,92.89
2019-05-20T19:55:13.245Z,92.67
2019-05-20T19:57:20.888Z,92.68
2019-05-20T19:59:28.566Z,93.38
2019-05-20T20:01:36.451Z,93.66
2019-05-20T20:03:44.328Z,93.64
2019-05-20T20:05:52.091Z,93.35
2019-05-20T20:08:00.334Z,93.49
2019-05-20T20:10:08.831Z,93.47
2019-05-20T20:12:16.604Z,93.55
2019-05-20T20:14:24.361Z,93.54
2019-05-20T20:16:31.940Z,92.68
2019-05-20T20:18:39.504Z,92.92
2019-05-20T20:20:47.211Z,92.68
2019-05-20T20:22:54.785Z,92.23
2019-05-20T20:25:02.937Z,92.37
2019-05-20T20:27:10.997Z,92.68
2019-05-20T20:29:20.015Z,92.60
2019-05-20T20:31:28.583Z,93.23
2019-05-20T20:33:36.404Z,92.01
2019-05-20T20:35:44.965Z,92.53
2019-05-20T20:37:55.116Z,92.62
2019-05-20T20:40:03.153Z,92.68
2019-05-20T20:42:11.746Z,93.35
2019-05-20T20:44:20.118Z,92.69
2019-05-20T20:46:28.010Z,92.81
2019-05-20T20:48:35.661Z,92.79
2019-05-20T20:50:43.274Z,92.84
2019-05-20T20:52:51.672Z,92.65
2019-05-20T20:54:59.650Z,92.71
2019-05-20T20:57:07.725Z,92.72
2019-05-20T20:59:15.435Z,93.00
2019-05-20T21:01:23.421Z,92.86
2019-05-20T21:03:31.084Z,92.61
2019-05-20T21:05:38.964Z,93.40
2019-05-20T21:07:46.873Z,93.32
2019-05-20T21:09:54.636Z,93.24
2019-05-20T21:12:02.536Z,93.06
2019-05-20T21:14:10.524Z,93.51
2019-05-20T21:16:18.348Z,93.44
2019-05-20T21:18:26.545Z,93.24
2019-05-20T21:20:34.906Z,93.55
2019-05-20T21:22:42.980Z,93.62
2019-05-20T21:24:50.797Z,93.29
2019-05-20T21:26:58.932Z,93.79
2019-05-20T21:29:06.910Z,93.75
2019-05-20T21:31:14.623Z,93.47
2019-05-20T21:33:22.315Z,93.84
2019-05-20T21:35:29.842Z,93.71
2019-05-20T21:37:37.550Z,93.26
2019-05-20T21:39:45.104Z,93.29
2019-05-20T21:41:52.664Z,93.39
2019-05-20T21:44:00.246Z,93.65
2019-05-20T21:46:07.984Z,93.76
2019-05-20T21:48:15.701Z,93.80
2019-05-20T21:50:23.111Z,93.17
2019-05-20T21:52:31.043Z,92.85
2019-05-20T21:54:38.554Z,93.25
2019-05-20T21:56:49.778Z,93.72
2019-05-20T21:58:55.542Z,93.76
2019-05-20T22:01:03.624Z,93.41
2019-05-20T22:03:23.572Z,93.33
2019-05-20T22:05:20.569Z,93.86
2019-05-20T22:07:28.330Z,93.44
2019-05-20T22:09:36.054Z,93.19
2019-05-20T22:11:43.613Z,94.45
2019-05-20T22:13:51.314Z,94.20
2019-05-20T22:15:58.742Z,94.00
2019-05-20T22:18:06.733Z,94.19
2019-05-20T22:20:16.231Z,94.19
2019-05-20T22:22:42.637Z,94.04
2019-05-20T22:24:50.660Z,94.29
2019-05-20T22:26:58.313Z,93.80
2019-05-20T22:29:05.991Z,94.59
2019-05-20T22:31:13.495Z,94.48
2019-05-20T22:33:20.961Z,94.90
2019-05-20T22:35:28.570Z,93.94
2019-05-20T22:37:36.097Z,94.65
2019-05-20T22:39:43.624Z,94.85
2019-05-20T22:41:51.062Z,94.53
2019-05-20T22:43:58.512Z,95.03
2019-05-20T22:46:06.206Z,94.89
2019-05-20T22:48:13.684Z,94.55
2019-05-20T22:50:21.144Z,94.16
2019-05-20T22:52:28.648Z,94.15
2019-05-20T22:54:36.117Z,93.92
2019-05-20T22:56:43.630Z,93.91
2019-05-20T22:58:51.209Z,93.03
2019-05-20T23:00:58.645Z,93.94
2019-05-20T23:03:06.263Z,94.47
2019-05-20T23:05:14.331Z,94.67
2019-05-20T23:07:21.827Z,93.62
2019-05-20T23:09:29.514Z,93.97
2019-05-20T23:11:37.128Z,93.50
2019-05-20T23:13:44.587Z,94.28
2019-05-20T23:15:55.466Z,94.29
2019-05-20T23:18:01.310Z,93.91
2019-05-20T23:20:09.710Z,93.75
2019-05-20T23:22:17.184Z,93.53
2019-05-20T23:24:24.681Z,94.23
2019-05-20T23:26:32.065Z,93.21
2019-05-20T23:28:39.551Z,93.67
2019-05-20T23:30:47.115Z,93.57
2019-05-20T23:32:54.577Z,94.08
2019-05-20T23:35:02.256Z,94.04
2019-05-20T23:37:09.847Z,94.26
2019-05-20T23:39:17.310Z,94.25
2019-05-20T23:41:24.808Z,94.34
2019-05-20T23:43:32.170Z,93.54
2019-05-20T23:45:39.771Z,93.81
2019-05-20T23:47:47.277Z,94.21
2019-05-20T23:49:54.730Z,94.03
2019-05-20T23:52:02.220Z,93.94
2019-05-20T23:54:09.705Z,93.99
2019-05-20T23:56:17.174Z,93.87
2019-05-20T23:58:24.581Z,94.15
